Terminal Aerodrome Forecast
Issued by NWS Shreveport, LA

Home | Current Version | Previous Version | Text Only | Print | Product List | Glossary On
Versions: 1 2 3 4 5 6 7 8 9 10 11 12 13 14
000
FTUS44 KSHV 022300
TAFTXK
TAF
KTXK 022330Z 0300/0324 07004KT 1SM BR OVC003
      TEMPO 0300/0304 3SM BR OVC005
     FM030500 11004KT 1/2SM FG OVC002
      TEMPO 0309/0313 3SM BR OVC006
     FM031300 17005KT P6SM BKN010
     FM031700 20008KT P6SM SCT020
      TEMPO 0317/0320 BKN015=

USA.gov is the U.S. government's official web portal to all federal, state and local government web resources and services.